sensor_id;sensor_type;location;lat;lon;timestamp;pressure;altitude;pressure_sealevel;temperature;humidity
4392;BME280;2210;51.938;8.488;2022-07-29T00:00:43;100625.47;;;18.87;55.93
4392;BME280;2210;51.938;8.488;2022-07-29T00:04:46;100612.13;;;18.79;56.27
4392;BME280;2210;51.938;8.488;2022-07-29T00:08:46;100615.19;;;18.78;56.04
4392;BME280;2210;51.938;8.488;2022-07-29T00:12:47;100594.84;;;18.72;56.30
4392;BME280;2210;51.938;8.488;2022-07-29T00:16:47;100596.75;;;18.77;56.10
4392;BME280;2210;51.938;8.488;2022-07-29T00:20:47;100584.78;;;18.76;56.39
4392;BME280;2210;51.938;8.488;2022-07-29T00:24:48;100580.03;;;18.71;56.88
4392;BME280;2210;51.938;8.488;2022-07-29T00:28:49;100570.81;;;18.76;56.86
4392;BME280;2210;51.938;8.488;2022-07-29T00:32:49;100579.19;;;18.76;56.43
4392;BME280;2210;51.938;8.488;2022-07-29T00:36:49;100573.59;;;18.76;56.25
4392;BME280;2210;51.938;8.488;2022-07-29T00:40:49;100573.31;;;18.78;56.00
4392;BME280;2210;51.938;8.488;2022-07-29T00:44:50;100575.78;;;18.79;55.57
4392;BME280;2210;51.938;8.488;2022-07-29T00:48:50;100586.16;;;18.79;55.85
4392;BME280;2210;51.938;8.488;2022-07-29T00:52:52;100578.31;;;18.76;56.14
4392;BME280;2210;51.938;8.488;2022-07-29T00:56:53;100576.88;;;18.89;57.10
4392;BME280;2210;51.938;8.488;2022-07-29T01:00:53;100576.03;;;18.88;56.86
4392;BME280;2210;51.938;8.488;2022-07-29T01:04:53;100569.13;;;18.75;57.32
4392;BME280;2210;51.938;8.488;2022-07-29T01:08:54;100559.06;;;18.74;57.74
4392;BME280;2210;51.938;8.488;2022-07-29T01:12:57;100550.53;;;18.60;57.70
4392;BME280;2210;51.938;8.488;2022-07-29T01:17:00;100539.41;;;18.55;57.29
4392;BME280;2210;51.938;8.488;2022-07-29T01:25:54;100540.22;;;18.56;57.67
4392;BME280;2210;51.938;8.488;2022-07-29T01:29:59;100538.34;;;18.46;58.07
4392;BME280;2210;51.938;8.488;2022-07-29T01:34:05;100536.41;;;18.46;58.61
4392;BME280;2210;51.938;8.488;2022-07-29T01:38:17;100532.56;;;18.37;58.62
4392;BME280;2210;51.938;8.488;2022-07-29T01:42:29;100524.81;;;18.29;58.88
4392;BME280;2210;51.938;8.488;2022-07-29T01:46:34;100523.72;;;18.25;58.87
4392;BME280;2210;51.938;8.488;2022-07-29T01:50:41;100513.94;;;18.27;59.00
4392;BME280;2210;51.938;8.488;2022-07-29T01:54:53;100499.69;;;18.29;58.05
4392;BME280;2210;51.938;8.488;2022-07-29T01:58:55;100500.47;;;18.34;57.76
4392;BME280;2210;51.938;8.488;2022-07-29T02:02:59;100497.66;;;18.40;57.15
4392;BME280;2210;51.938;8.488;2022-07-29T02:07:10;100505.63;;;18.51;57.70
4392;BME280;2210;51.938;8.488;2022-07-29T02:11:13;100496.75;;;18.44;57.18
4392;BME280;2210;51.938;8.488;2022-07-29T02:15:14;100494.06;;;18.34;58.14
4392;BME280;2210;51.938;8.488;2022-07-29T02:19:18;100485.69;;;18.34;58.39
4392;BME280;2210;51.938;8.488;2022-07-29T02:23:21;100487.94;;;18.32;58.64
4392;BME280;2210;51.938;8.488;2022-07-29T02:27:23;100478.47;;;18.28;60.27
4392;BME280;2210;51.938;8.488;2022-07-29T02:31:26;100490.97;;;18.35;59.62
4392;BME280;2210;51.938;8.488;2022-07-29T02:35:29;100498.75;;;18.39;57.88
4392;BME280;2210;51.938;8.488;2022-07-29T02:39:29;100488.50;;;18.29;58.27
4392;BME280;2210;51.938;8.488;2022-07-29T02:43:31;100488.81;;;18.27;58.67
4392;BME280;2210;51.938;8.488;2022-07-29T02:47:43;100486.28;;;18.26;58.27
4392;BME280;2210;51.938;8.488;2022-07-29T02:52:08;100478.00;;;18.15;59.37
4392;BME280;2210;51.938;8.488;2022-07-29T02:56:13;100481.63;;;18.16;59.72
4392;BME280;2210;51.938;8.488;2022-07-29T03:00:15;100481.63;;;18.16;59.03
4392;BME280;2210;51.938;8.488;2022-07-29T03:04:17;100486.66;;;18.14;59.30
4392;BME280;2210;51.938;8.488;2022-07-29T03:08:19;100485.28;;;18.11;59.81
4392;BME280;2210;51.938;8.488;2022-07-29T03:12:19;100478.53;;;18.17;60.97
4392;BME280;2210;51.938;8.488;2022-07-29T03:16:20;100494.25;;;18.08;62.63
4392;BME280;2210;51.938;8.488;2022-07-29T03:20:22;100495.66;;;18.06;61.67
4392;BME280;2210;51.938;8.488;2022-07-29T03:28:33;100489.31;;;17.95;63.21
4392;BME280;2210;51.938;8.488;2022-07-29T03:32:34;100494.59;;;17.96;62.72
4392;BME280;2210;51.938;8.488;2022-07-29T03:36:34;100495.44;;;17.86;63.83
4392;BME280;2210;51.938;8.488;2022-07-29T03:40:42;100497.97;;;17.83;64.38
4392;BME280;2210;51.938;8.488;2022-07-29T03:44:47;100486.00;;;17.82;65.50
4392;BME280;2210;51.938;8.488;2022-07-29T03:48:50;100487.41;;;17.75;65.82
4392;BME280;2210;51.938;8.488;2022-07-29T03:52:52;100484.94;;;17.73;66.65
4392;BME280;2210;51.938;8.488;2022-07-29T03:56:53;100483.84;;;17.69;66.94
4392;BME280;2210;51.938;8.488;2022-07-29T04:00:55;100489.41;;;17.69;67.61
4392;BME280;2210;51.938;8.488;2022-07-29T04:04:56;100485.84;;;17.58;67.23
4392;BME280;2210;51.938;8.488;2022-07-29T04:08:56;100480.00;;;17.49;69.53
4392;BME280;2210;51.938;8.488;2022-07-29T04:12:57;100483.66;;;17.45;69.84
4392;BME280;2210;51.938;8.488;2022-07-29T04:16:59;100486.44;;;17.45;69.23
4392;BME280;2210;51.938;8.488;2022-07-29T04:20:59;100490.03;;;17.45;70.49
4392;BME280;2210;51.938;8.488;2022-07-29T04:25:00;100490.84;;;17.51;69.92
4392;BME280;2210;51.938;8.488;2022-07-29T04:29:01;100502.59;;;17.43;69.48
4392;BME280;2210;51.938;8.488;2022-07-29T04:33:02;100497.31;;;17.36;69.44
4392;BME280;2210;51.938;8.488;2022-07-29T04:37:03;100489.25;;;17.34;69.07
4392;BME280;2210;51.938;8.488;2022-07-29T04:41:03;100489.53;;;17.33;67.59
4392;BME280;2210;51.938;8.488;2022-07-29T04:45:04;100491.78;;;17.31;67.22
4392;BME280;2210;51.938;8.488;2022-07-29T04:49:04;100496.78;;;17.34;66.33
4392;BME280;2210;51.938;8.488;2022-07-29T04:53:05;100490.56;;;17.52;64.74
4392;BME280;2210;51.938;8.488;2022-07-29T04:57:05;100491.41;;;17.58;63.85
4392;BME280;2210;51.938;8.488;2022-07-29T05:01:05;100484.97;;;17.58;65.55
4392;BME280;2210;51.938;8.488;2022-07-29T05:05:06;100488.56;;;17.63;64.93
4392;BME280;2210;51.938;8.488;2022-07-29T05:09:06;100484.94;;;17.68;66.43
4392;BME280;2210;51.938;8.488;2022-07-29T05:13:07;100486.84;;;17.78;66.75
4392;BME280;2210;51.938;8.488;2022-07-29T05:17:08;100484.88;;;17.78;67.58
4392;BME280;2210;51.938;8.488;2022-07-29T05:21:08;100478.97;;;17.85;67.68
4392;BME280;2210;51.938;8.488;2022-07-29T05:25:08;100476.47;;;17.89;66.52
4392;BME280;2210;51.938;8.488;2022-07-29T05:29:09;100473.69;;;17.94;66.12
4392;BME280;2210;51.938;8.488;2022-07-29T05:33:10;100475.84;;;18.02;67.98
4392;BME280;2210;51.938;8.488;2022-07-29T05:37:10;100463.59;;;18.03;69.09
4392;BME280;2210;51.938;8.488;2022-07-29T05:41:13;100470.88;;;17.99;67.03
4392;BME280;2210;51.938;8.488;2022-07-29T05:45:13;100471.38;;;18.06;67.04
4392;BME280;2210;51.938;8.488;2022-07-29T05:49:13;100463.56;;;18.08;67.59
4392;BME280;2210;51.938;8.488;2022-07-29T05:53:14;100466.28;;;18.13;64.64
4392;BME280;2210;51.938;8.488;2022-07-29T05:57:22;100482.19;;;18.18;64.94
4392;BME280;2210;51.938;8.488;2022-07-29T06:01:22;100488.25;;;18.25;65.52
4392;BME280;2210;51.938;8.488;2022-07-29T06:05:22;100493.22;;;18.33;67.14
4392;BME280;2210;51.938;8.488;2022-07-29T06:09:23;100503.56;;;18.33;64.21
4392;BME280;2210;51.938;8.488;2022-07-29T06:13:23;100501.88;;;18.32;64.41
4392;BME280;2210;51.938;8.488;2022-07-29T06:17:23;100499.34;;;18.35;66.58
4392;BME280;2210;51.938;8.488;2022-07-29T06:21:24;100497.88;;;18.43;66.23
4392;BME280;2210;51.938;8.488;2022-07-29T06:25:24;100495.94;;;18.44;63.79
4392;BME280;2210;51.938;8.488;2022-07-29T06:29:24;100496.16;;;18.47;64.75
4392;BME280;2210;51.938;8.488;2022-07-29T06:33:24;100504.28;;;18.49;62.18
4392;BME280;2210;51.938;8.488;2022-07-29T06:37:25;100510.66;;;18.54;63.47
4392;BME280;2210;51.938;8.488;2022-07-29T06:41:25;100506.44;;;18.57;64.95
4392;BME280;2210;51.938;8.488;2022-07-29T06:45:26;100500.47;;;18.69;66.10
4392;BME280;2210;51.938;8.488;2022-07-29T06:49:26;100500.72;;;18.73;64.58
4392;BME280;2210;51.938;8.488;2022-07-29T06:53:28;100499.31;;;18.75;63.45
4392;BME280;2210;51.938;8.488;2022-07-29T06:57:28;100509.28;;;18.81;65.15
4392;BME280;2210;51.938;8.488;2022-07-29T07:01:28;100506.44;;;18.92;64.43
4392;BME280;2210;51.938;8.488;2022-07-29T07:05:29;100515.84;;;19.01;64.44
4392;BME280;2210;51.938;8.488;2022-07-29T07:09:29;100512.94;;;19.11;62.40
4392;BME280;2210;51.938;8.488;2022-07-29T07:13:29;100514.50;;;19.23;64.92
4392;BME280;2210;51.938;8.488;2022-07-29T07:17:34;100515.59;;;19.27;64.88
4392;BME280;2210;51.938;8.488;2022-07-29T07:21:34;100515.59;;;19.27;62.71
4392;BME280;2210;51.938;8.488;2022-07-29T07:25:35;100517.25;;;19.28;63.59
4392;BME280;2210;51.938;8.488;2022-07-29T07:29:35;100520.56;;;19.30;64.88
4392;BME280;2210;51.938;8.488;2022-07-29T07:33:36;100516.97;;;19.29;64.69
4392;BME280;2210;51.938;8.488;2022-07-29T07:37:37;100527.03;;;19.30;62.71
4392;BME280;2210;51.938;8.488;2022-07-29T07:41:37;100531.72;;;19.35;63.05
4392;BME280;2210;51.938;8.488;2022-07-29T07:45:38;100537.47;;;19.44;61.63
4392;BME280;2210;51.938;8.488;2022-07-29T07:49:40;100541.34;;;19.48;62.16
4392;BME280;2210;51.938;8.488;2022-07-29T07:53:40;100542.19;;;19.48;60.96
4392;BME280;2210;51.938;8.488;2022-07-29T07:57:40;100544.38;;;19.51;62.59
4392;BME280;2210;51.938;8.488;2022-07-29T08:01:41;100544.03;;;19.58;61.77
4392;BME280;2210;51.938;8.488;2022-07-29T08:05:41;100529.50;;;19.80;59.56
4392;BME280;2210;51.938;8.488;2022-07-29T08:09:41;100526.88;;;19.89;59.21
4392;BME280;2210;51.938;8.488;2022-07-29T08:13:42;100527.81;;;20.42;62.35
4392;BME280;2210;51.938;8.488;2022-07-29T08:17:43;100531.19;;;21.10;60.32
4392;BME280;2210;51.938;8.488;2022-07-29T08:21:43;100528.31;;;21.43;59.08
4392;BME280;2210;51.938;8.488;2022-07-29T08:25:43;100531.94;;;21.29;57.44
4392;BME280;2210;51.938;8.488;2022-07-29T08:29:44;100544.56;;;20.99;55.21
4392;BME280;2210;51.938;8.488;2022-07-29T08:33:44;100544.38;;;20.76;56.31
4392;BME280;2210;51.938;8.488;2022-07-29T08:37:44;100538.63;;;20.67;57.62
4392;BME280;2210;51.938;8.488;2022-07-29T08:41:45;100535.66;;;20.59;59.08
4392;BME280;2210;51.938;8.488;2022-07-29T08:45:47;100540.53;;;20.53;57.51
4392;BME280;2210;51.938;8.488;2022-07-29T08:49:47;100533.16;;;20.57;59.70
4392;BME280;2210;51.938;8.488;2022-07-29T08:53:49;100531.88;;;20.49;60.59
4392;BME280;2210;51.938;8.488;2022-07-29T08:57:50;100529.22;;;20.77;60.91
4392;BME280;2210;51.938;8.488;2022-07-29T09:01:52;100527.09;;;21.49;58.83
4392;BME280;2210;51.938;8.488;2022-07-29T09:05:53;100526.06;;;21.59;59.03
4392;BME280;2210;51.938;8.488;2022-07-29T09:09:53;100523.97;;;21.92;56.45
4392;BME280;2210;51.938;8.488;2022-07-29T09:13:54;100514.19;;;21.89;55.29
4392;BME280;2210;51.938;8.488;2022-07-29T09:17:54;100500.22;;;21.98;53.52
4392;BME280;2210;51.938;8.488;2022-07-29T09:21:58;100496.19;;;22.41;54.80
4392;BME280;2210;51.938;8.488;2022-07-29T09:26:05;100502.84;;;21.95;50.45
4392;BME280;2210;51.938;8.488;2022-07-29T09:30:08;100496.06;;;21.96;50.57
4392;BME280;2210;51.938;8.488;2022-07-29T09:34:30;100493.59;;;22.31;51.00
4392;BME280;2210;51.938;8.488;2022-07-29T09:38:32;100486.84;;;22.54;51.28
4392;BME280;2210;51.938;8.488;2022-07-29T09:42:33;100484.72;;;22.83;50.13
4392;BME280;2210;51.938;8.488;2022-07-29T09:46:33;100482.06;;;23.09;51.76
4392;BME280;2210;51.938;8.488;2022-07-29T09:50:36;100487.28;;;23.65;50.54
4392;BME280;2210;51.938;8.488;2022-07-29T09:54:37;100483.94;;;23.14;52.63
4392;BME280;2210;51.938;8.488;2022-07-29T09:58:37;100484.94;;;22.95;53.56
4392;BME280;2210;51.938;8.488;2022-07-29T10:02:39;100481.31;;;22.95;52.40
4392;BME280;2210;51.938;8.488;2022-07-29T10:06:55;100479.56;;;22.76;54.36
4392;BME280;2210;51.938;8.488;2022-07-29T10:11:10;100473.13;;;22.76;55.84
4392;BME280;2210;51.938;8.488;2022-07-29T10:15:11;100478.06;;;23.01;51.96
4392;BME280;2210;51.938;8.488;2022-07-29T10:19:12;100472.75;;;23.31;56.91
4392;BME280;2210;51.938;8.488;2022-07-29T10:23:13;100460.28;;;23.72;51.78
4392;BME280;2210;51.938;8.488;2022-07-29T10:27:13;100465.16;;;24.16;50.16
4392;BME280;2210;51.938;8.488;2022-07-29T10:31:22;100465.31;;;24.02;49.16
4392;BME280;2210;51.938;8.488;2022-07-29T10:40:10;100469.53;;;23.64;50.46
4392;BME280;2210;51.938;8.488;2022-07-29T10:44:34;100470.97;;;23.93;49.16
4392;BME280;2210;51.938;8.488;2022-07-29T10:48:34;100471.38;;;23.69;47.61
4392;BME280;2210;51.938;8.488;2022-07-29T10:53:04;100468.84;;;23.50;48.90
4392;BME280;2210;51.938;8.488;2022-07-29T11:01:29;100466.28;;;23.80;47.39
4392;BME280;2210;51.938;8.488;2022-07-29T11:05:55;100471.00;;;23.44;49.36
4392;BME280;2210;51.938;8.488;2022-07-29T11:23:27;100475.09;;;24.48;47.23
4392;BME280;2210;51.938;8.488;2022-07-29T11:27:31;100465.66;;;24.27;45.19
4392;BME280;2210;51.938;8.488;2022-07-29T11:31:41;100467.31;;;24.10;45.74
4392;BME280;2210;51.938;8.488;2022-07-29T11:36:07;100473.59;;;24.33;47.53
4392;BME280;2210;51.938;8.488;2022-07-29T11:40:12;100472.13;;;24.45;47.41
4392;BME280;2210;51.938;8.488;2022-07-29T11:44:12;100472.94;;;24.63;46.17
4392;BME280;2210;51.938;8.488;2022-07-29T11:48:16;100462.97;;;24.56;46.77
4392;BME280;2210;51.938;8.488;2022-07-29T11:52:19;100459.34;;;24.65;44.89
4392;BME280;2210;51.938;8.488;2022-07-29T11:56:21;100453.81;;;24.95;45.92
4392;BME280;2210;51.938;8.488;2022-07-29T12:00:27;100446.75;;;25.18;43.06
4392;BME280;2210;51.938;8.488;2022-07-29T12:04:28;100446.81;;;25.01;43.04
4392;BME280;2210;51.938;8.488;2022-07-29T12:08:29;100437.03;;;24.98;45.29
4392;BME280;2210;51.938;8.488;2022-07-29T12:12:30;100443.56;;;25.29;44.71
4392;BME280;2210;51.938;8.488;2022-07-29T12:16:36;100445.03;;;25.35;45.33
4392;BME280;2210;51.938;8.488;2022-07-29T12:20:37;100441.91;;;25.57;44.17
4392;BME280;2210;51.938;8.488;2022-07-29T12:24:44;100444.13;;;25.52;42.19
4392;BME280;2210;51.938;8.488;2022-07-29T12:28:44;100446.03;;;25.30;43.18
4392;BME280;2210;51.938;8.488;2022-07-29T12:32:46;100449.75;;;25.52;43.73
4392;BME280;2210;51.938;8.488;2022-07-29T12:36:46;100452.94;;;25.50;44.52
4392;BME280;2210;51.938;8.488;2022-07-29T12:40:48;100446.19;;;25.34;42.85
4392;BME280;2210;51.938;8.488;2022-07-29T12:44:50;100442.03;;;24.92;44.67
4392;BME280;2210;51.938;8.488;2022-07-29T12:48:52;100445.03;;;24.87;44.55
4392;BME280;2210;51.938;8.488;2022-07-29T12:53:11;100439.03;;;24.98;46.08
4392;BME280;2210;51.938;8.488;2022-07-29T12:57:12;100434.41;;;25.32;45.23
4392;BME280;2210;51.938;8.488;2022-07-29T13:01:14;100433.66;;;25.14;46.02
4392;BME280;2210;51.938;8.488;2022-07-29T13:05:15;100427.66;;;25.15;44.92
4392;BME280;2210;51.938;8.488;2022-07-29T13:09:18;100433.69;;;25.05;44.36
4392;BME280;2210;51.938;8.488;2022-07-29T13:13:19;100438.22;;;24.88;45.00
4392;BME280;2210;51.938;8.488;2022-07-29T13:17:21;100430.56;;;24.98;46.36
4392;BME280;2210;51.938;8.488;2022-07-29T13:21:24;100431.16;;;25.12;45.24
4392;BME280;2210;51.938;8.488;2022-07-29T13:25:30;100424.06;;;24.97;45.56
4392;BME280;2210;51.938;8.488;2022-07-29T13:29:31;100423.09;;;25.02;47.32
4392;BME280;2210;51.938;8.488;2022-07-29T13:33:32;100416.28;;;25.03;45.85
4392;BME280;2210;51.938;8.488;2022-07-29T13:37:33;100415.94;;;25.04;46.70
4392;BME280;2210;51.938;8.488;2022-07-29T13:41:34;100409.66;;;24.99;48.44
4392;BME280;2210;51.938;8.488;2022-07-29T13:45:35;100415.16;;;24.86;47.13
4392;BME280;2210;51.938;8.488;2022-07-29T13:49:35;100411.34;;;24.82;46.50
4392;BME280;2210;51.938;8.488;2022-07-29T13:53:36;100410.53;;;24.82;48.38
4392;BME280;2210;51.938;8.488;2022-07-29T13:57:36;100410.03;;;24.80;47.34
4392;BME280;2210;51.938;8.488;2022-07-29T14:01:37;100410.19;;;24.83;49.52
4392;BME280;2210;51.938;8.488;2022-07-29T14:05:37;100398.59;;;24.85;49.33
4392;BME280;2210;51.938;8.488;2022-07-29T14:09:38;100402.25;;;24.77;49.59
4392;BME280;2210;51.938;8.488;2022-07-29T14:13:38;100403.09;;;24.77;49.25
4392;BME280;2210;51.938;8.488;2022-07-29T14:17:38;100412.03;;;24.79;48.70
4392;BME280;2210;51.938;8.488;2022-07-29T14:21:39;100414.69;;;24.84;50.27
4392;BME280;2210;51.938;8.488;2022-07-29T14:25:39;100421.13;;;24.85;50.72
4392;BME280;2210;51.938;8.488;2022-07-29T14:29:39;100411.56;;;24.77;50.98
4392;BME280;2210;51.938;8.488;2022-07-29T14:33:40;100412.72;;;24.76;50.10
4392;BME280;2210;51.938;8.488;2022-07-29T14:37:41;100414.06;;;24.70;50.52
4392;BME280;2210;51.938;8.488;2022-07-29T14:41:41;100412.94;;;24.62;49.99
4392;BME280;2210;51.938;8.488;2022-07-29T14:45:42;100416.88;;;24.52;50.27
4392;BME280;2210;51.938;8.488;2022-07-29T14:49:42;100423.72;;;24.42;50.97
4392;BME280;2210;51.938;8.488;2022-07-29T14:53:43;100430.88;;;24.31;51.91
4392;BME280;2210;51.938;8.488;2022-07-29T14:57:43;100428.22;;;24.26;50.90
4392;BME280;2210;51.938;8.488;2022-07-29T15:01:43;100428.53;;;24.24;51.19
4392;BME280;2210;51.938;8.488;2022-07-29T15:05:43;100433.34;;;24.15;50.69
4392;BME280;2210;51.938;8.488;2022-07-29T15:09:44;100429.03;;;24.09;51.37
4392;BME280;2210;51.938;8.488;2022-07-29T15:13:45;100431.69;;;24.05;52.11
4392;BME280;2210;51.938;8.488;2022-07-29T15:17:46;100433.66;;;24.05;52.86
4392;BME280;2210;51.938;8.488;2022-07-29T15:21:47;100430.06;;;23.96;52.00
4392;BME280;2210;51.938;8.488;2022-07-29T15:25:47;100428.34;;;23.86;52.50
4392;BME280;2210;51.938;8.488;2022-07-29T15:29:47;100428.66;;;23.84;53.15
4392;BME280;2210;51.938;8.488;2022-07-29T15:33:47;100428.66;;;23.84;52.49
4392;BME280;2210;51.938;8.488;2022-07-29T15:37:48;100426.38;;;23.86;53.51
4392;BME280;2210;51.938;8.488;2022-07-29T15:41:48;100419.22;;;23.80;52.33
4392;BME280;2210;51.938;8.488;2022-07-29T15:45:49;100415.94;;;23.78;54.91
4392;BME280;2210;51.938;8.488;2022-07-29T15:50:08;100415.94;;;23.78;53.94
4392;BME280;2210;51.938;8.488;2022-07-29T15:54:13;100413.13;;;23.78;53.31
4392;BME280;2210;51.938;8.488;2022-07-29T15:58:13;100412.13;;;23.74;53.15
4392;BME280;2210;51.938;8.488;2022-07-29T16:02:14;100410.47;;;23.73;53.95
4392;BME280;2210;51.938;8.488;2022-07-29T16:06:14;100418.53;;;23.57;53.94
4392;BME280;2210;51.938;8.488;2022-07-29T16:10:14;100404.28;;;23.53;54.14
4392;BME280;2210;51.938;8.488;2022-07-29T16:14:16;100407.59;;;23.47;53.30
4392;BME280;2210;51.938;8.488;2022-07-29T16:18:16;100409.44;;;23.51;53.56
4392;BME280;2210;51.938;8.488;2022-07-29T16:22:17;100410.25;;;23.43;51.74
4392;BME280;2210;51.938;8.488;2022-07-29T16:26:17;100416.19;;;23.42;52.40
4392;BME280;2210;51.938;8.488;2022-07-29T16:30:17;100407.38;;;23.34;52.42
4392;BME280;2210;51.938;8.488;2022-07-29T16:34:18;100417.63;;;23.30;53.80
4392;BME280;2210;51.938;8.488;2022-07-29T16:38:19;100407.72;;;23.24;53.72
4392;BME280;2210;51.938;8.488;2022-07-29T16:42:19;100405.22;;;23.22;53.12
4392;BME280;2210;51.938;8.488;2022-07-29T16:46:19;100409.84;;;23.18;54.56
4392;BME280;2210;51.938;8.488;2022-07-29T16:50:20;100404.63;;;23.03;56.49
4392;BME280;2210;51.938;8.488;2022-07-29T16:54:21;100406.84;;;22.83;57.91
4392;BME280;2210;51.938;8.488;2022-07-29T16:58:21;100401.50;;;22.73;60.04
4392;BME280;2210;51.938;8.488;2022-07-29T17:02:21;100400.47;;;22.60;62.55
4392;BME280;2210;51.938;8.488;2022-07-29T17:06:21;100399.06;;;22.49;63.71
4392;BME280;2210;51.938;8.488;2022-07-29T17:10:22;100397.72;;;22.23;70.03
4392;BME280;2210;51.938;8.488;2022-07-29T17:14:25;100394.19;;;21.95;73.53
4392;BME280;2210;51.938;8.488;2022-07-29T17:18:25;100404.47;;;21.77;77.00
4392;BME280;2210;51.938;8.488;2022-07-29T17:22:26;100405.78;;;21.80;77.57
4392;BME280;2210;51.938;8.488;2022-07-29T17:26:26;100409.16;;;21.68;74.00
4392;BME280;2210;51.938;8.488;2022-07-29T17:30:28;100406.84;;;21.70;73.15
4392;BME280;2210;51.938;8.488;2022-07-29T17:34:28;100409.00;;;21.73;73.05
4392;BME280;2210;51.938;8.488;2022-07-29T17:38:28;100420.88;;;21.70;73.28
4392;BME280;2210;51.938;8.488;2022-07-29T17:42:28;100422.91;;;21.55;81.32
4392;BME280;2210;51.938;8.488;2022-07-29T17:46:29;100428.50;;;21.00;90.90
4392;BME280;2210;51.938;8.488;2022-07-29T17:50:29;100429.09;;;20.50;95.42
4392;BME280;2210;51.938;8.488;2022-07-29T17:54:29;100431.03;;;20.35;96.64
4392;BME280;2210;51.938;8.488;2022-07-29T17:58:30;100440.19;;;20.22;100.00
4392;BME280;2210;51.938;8.488;2022-07-29T18:02:30;100457.38;;;20.15;100.00
4392;BME280;2210;51.938;8.488;2022-07-29T18:06:30;100470.38;;;20.06;100.00
4392;BME280;2210;51.938;8.488;2022-07-29T18:10:31;100492.56;;;20.21;100.00
4392;BME280;2210;51.938;8.488;2022-07-29T18:14:32;100492.03;;;20.19;100.00
4392;BME280;2210;51.938;8.488;2022-07-29T18:18:32;100474.44;;;19.76;100.00
4392;BME280;2210;51.938;8.488;2022-07-29T18:22:33;100479.53;;;19.49;100.00
4392;BME280;2210;51.938;8.488;2022-07-29T18:26:33;100504.88;;;19.34;100.00
4392;BME280;2210;51.938;8.488;2022-07-29T18:30:34;100508.31;;;19.26;100.00
4392;BME280;2210;51.938;8.488;2022-07-29T18:34:37;100499.41;;;19.24;100.00
4392;BME280;2210;51.938;8.488;2022-07-29T18:38:39;100499.78;;;19.41;100.00
4392;BME280;2210;51.938;8.488;2022-07-29T18:42:40;100500.84;;;19.45;100.00
4392;BME280;2210;51.938;8.488;2022-07-29T18:46:40;100493.28;;;19.46;100.00
4392;BME280;2210;51.938;8.488;2022-07-29T18:50:41;100491.66;;;19.40;100.00
4392;BME280;2210;51.938;8.488;2022-07-29T18:54:41;100489.13;;;19.43;100.00
4392;BME280;2210;51.938;8.488;2022-07-29T18:58:41;100488.59;;;19.41;100.00
4392;BME280;2210;51.938;8.488;2022-07-29T19:02:41;100495.59;;;19.38;100.00
4392;BME280;2210;51.938;8.488;2022-07-29T19:06:42;100500.41;;;19.33;100.00
4392;BME280;2210;51.938;8.488;2022-07-29T19:10:42;100504.50;;;19.16;100.00
4392;BME280;2210;51.938;8.488;2022-07-29T19:14:42;100513.41;;;19.24;100.00
4392;BME280;2210;51.938;8.488;2022-07-29T19:18:43;100524.22;;;19.30;100.00
4392;BME280;2210;51.938;8.488;2022-07-29T19:22:43;100532.88;;;19.29;100.00
4392;BME280;2210;51.938;8.488;2022-07-29T19:26:44;100537.34;;;19.30;100.00
4392;BME280;2210;51.938;8.488;2022-07-29T19:30:47;100537.31;;;19.35;100.00
4392;BME280;2210;51.938;8.488;2022-07-29T19:34:48;100545.94;;;19.38;100.00
4392;BME280;2210;51.938;8.488;2022-07-29T19:39:08;100562.81;;;19.28;100.00
4392;BME280;2210;51.938;8.488;2022-07-29T19:43:08;100558.50;;;19.41;100.00
4392;BME280;2210;51.938;8.488;2022-07-29T19:47:09;100574.53;;;19.30;100.00
4392;BME280;2210;51.938;8.488;2022-07-29T19:51:09;100588.78;;;19.29;100.00
4392;BME280;2210;51.938;8.488;2022-07-29T19:55:09;100598.63;;;19.26;100.00
4392;BME280;2210;51.938;8.488;2022-07-29T19:59:10;100613.94;;;19.29;100.00
4392;BME280;2210;51.938;8.488;2022-07-29T20:03:10;100611.72;;;19.31;100.00
4392;BME280;2210;51.938;8.488;2022-07-29T20:07:11;100612.59;;;19.26;100.00
4392;BME280;2210;51.938;8.488;2022-07-29T20:11:12;100618.75;;;19.23;100.00
4392;BME280;2210;51.938;8.488;2022-07-29T20:15:12;100604.25;;;19.21;100.00
4392;BME280;2210;51.938;8.488;2022-07-29T20:19:14;100610.25;;;19.04;100.00
4392;BME280;2210;51.938;8.488;2022-07-29T20:23:14;100600.31;;;18.93;100.00
4392;BME280;2210;51.938;8.488;2022-07-29T20:27:15;100607.31;;;18.85;100.00
4392;BME280;2210;51.938;8.488;2022-07-29T20:31:15;100587.50;;;18.81;100.00
4392;BME280;2210;51.938;8.488;2022-07-29T20:35:16;100600.75;;;18.65;100.00
4392;BME280;2210;51.938;8.488;2022-07-29T20:39:16;100597.41;;;18.63;100.00
4392;BME280;2210;51.938;8.488;2022-07-29T20:43:16;100594.47;;;18.44;100.00
4392;BME280;2210;51.938;8.488;2022-07-29T20:47:16;100600.09;;;18.39;100.00
4392;BME280;2210;51.938;8.488;2022-07-29T20:51:17;100601.22;;;18.38;100.00
4392;BME280;2210;51.938;8.488;2022-07-29T20:55:17;100596.19;;;18.35;100.00
4392;BME280;2210;51.938;8.488;2022-07-29T20:59:17;100606.72;;;18.48;100.00
4392;BME280;2210;51.938;8.488;2022-07-29T21:03:18;100617.06;;;18.48;100.00
4392;BME280;2210;51.938;8.488;2022-07-29T21:07:18;100611.66;;;18.67;100.00
4392;BME280;2210;51.938;8.488;2022-07-29T21:11:18;100607.19;;;18.66;100.00
4392;BME280;2210;51.938;8.488;2022-07-29T21:15:19;100616.66;;;18.65;100.00
4392;BME280;2210;51.938;8.488;2022-07-29T21:19:20;100617.28;;;18.57;100.00
4392;BME280;2210;51.938;8.488;2022-07-29T21:23:20;100613.88;;;18.65;100.00
4392;BME280;2210;51.938;8.488;2022-07-29T21:27:21;100622.84;;;18.62;100.00
4392;BME280;2210;51.938;8.488;2022-07-29T21:31:39;100619.44;;;18.70;100.00
4392;BME280;2210;51.938;8.488;2022-07-29T21:35:41;100619.44;;;18.70;100.00
4392;BME280;2210;51.938;8.488;2022-07-29T21:39:41;100619.47;;;18.65;100.00
4392;BME280;2210;51.938;8.488;2022-07-29T21:43:42;100621.16;;;18.61;100.00
4392;BME280;2210;51.938;8.488;2022-07-29T21:47:42;100622.84;;;18.62;100.00
4392;BME280;2210;51.938;8.488;2022-07-29T21:51:42;100624.75;;;18.66;100.00
4392;BME280;2210;51.938;8.488;2022-07-29T21:55:43;100618.81;;;18.78;100.00
4392;BME280;2210;51.938;8.488;2022-07-29T21:59:43;100616.59;;;18.75;100.00
4392;BME280;2210;51.938;8.488;2022-07-29T22:03:43;100614.44;;;18.67;100.00
4392;BME280;2210;51.938;8.488;2022-07-29T22:07:43;100613.09;;;18.59;100.00